Avondale Estates, GA

5:05 PM EDT on September 01, 2014 (GMT -0400)
City of Avondale Estates | Change Station
CLOSE
Current Station
Personal Weather Station
Location: Avondale Estates, GA
Elevation: 1079 ft
Nearby Weather Stations

Elev 1079 ft 33.78 °N, 84.27 °W | Updated 27 seconds ago

Mostly Cloudy
Mostly Cloudy
88.9 °F
Feels Like 119 °F
N
0.0
Wind Variable Wind from WNW

Today
High -- | Low -- °F
--% Chance of Precip.
Yesterday
High -- | Low -- °F
Precip. -- in
7:10 AM 8:02 PM
Waxing Crescent, 44% visible
Pressure 30.03 in
Visibility 10.0 miles
Clouds Mostly Cloudy 5000 ft
Overcast 7500 ft
Heat Index 119 °F
Dew Point 86 °F
Humidity 92%
Rainfall 0.00 in
Snow Depth Not available.
UV 2 out of 12
Pollen 9.00 out of 12
Air Quality Not available.
Flu Activity Not available.
METAR KPDK 012053Z 13004KT 10SM BKN050 OVC075 31/20 A3008 RMK AO2 SLP168 T03060200 56018

More Conditions Fewer Conditions

Pressure 30.03 in
Visibility 10.0 miles
Clouds Mostly Cloudy 5000 ft
Overcast 7500 ft
Heat Index 119 °F
Dew Point 86 °F
Humidity 92%
Rainfall 0.00 in
Snow Depth Not available.
UV 2 out of 12
Pollen 9.00 out of 12
Air Quality Not available.
Flu Activity Not available.
METAR KPDK 012053Z 13004KT 10SM BKN050 OVC075 31/20 A3008 RMK AO2 SLP168 T03060200 56018

More Conditions Fewer Conditions

10-Day Weather Forecast

Almanac

Astronomy

Sep. 01, 2014 Rise Set
Actual Time 7:10 AM EDT 8:02 PM EDT
Civil Twilight 6:45 AM EDT 8:28 PM EDT
Nautical Twilight 6:15 AM EDT 8:58 PM EDT
Astronomical Twilight 5:44 AM EDT 9:28 PM EDT
Moon 1:36 PM EDT No Moon Set
Length of Visible Light 13h 42m
Length of Day
12h 51m
Tomorrow will be 2m 1s shorter.
Waxing Crescent, 44% of the Moon is Illuminated
Today
Waxing Crescent
Sep 2
First Quarter
Sep 8
Full
Sep 15
Last Quarter
Sep 24
New

Today's Extremes

State Highs State Lows

Community

WunderPhotos

Upload Photos

1,749,407 photos uploaded!

WunderBlogs® & News

Nearby

Air Quality

  Air Quality AQ Index Pollutant
Monday Moderate
PM2.5
Monday Good
OZONE
Tuesday Moderate
OZONE
Tuesday Moderate
PM2.5

Snow Depth

Station Depth Elevation
No new snow has been reported.

Earthquake Activity

City Distance Mag. Time & Date
No recent earthquake activity has been reported nearby.
Minimum magnitude displayed is 2.5.

Coastal Water Temperatures

Place Temperature
No Stations Reporting

Nearby Weather Stations